Time;durP1;ratioP1;P1;durP2;ratioP2;P2;SDS_P1;SDS_P2;PMS_P1;PMS_P2;Temp;Humidity;BMP_temperature;BMP_pressure;BME280_temperature;BME280_humidity;BME280_pressure;Samples;Min_cycle;Max_cycle;Signal;HPM_P1;HPM_P2
2023/12/15 00:01:29;;;;;;;31.77;24.87;;;;;;;;;;5588115;31;34734;-76
2023/12/15 00:04:32;;;;;;;33.03;25.20;;;;;;;;;;5588062;31;35403;-77
2023/12/15 00:07:34;;;;;;;33.38;25.20;;;;;;;;;;5588003;31;34609;-77
2023/12/15 00:10:38;;;;;;;34.97;26.05;;;;;;;;;;5587706;31;34929;-76
2023/12/15 00:13:41;;;;;;;33.90;26.08;;;;;;;;;;5588008;31;34655;-77
2023/12/15 00:16:44;;;;;;;33.70;25.60;;;;;;;;;;5587790;31;34722;-76
2023/12/15 00:19:46;;;;;;;34.95;26.52;;;;;;;;;;5587871;31;34690;-77
2023/12/15 00:22:49;;;;;;;35.08;25.73;;;;;;;;;;5587943;31;35306;-76
2023/12/15 00:25:52;;;;;;;35.47;27.37;;;;;;;;;;5587826;31;35370;-77
2023/12/15 00:28:54;;;;;;;38.97;28.75;;;;;;;;;;5588115;31;34655;-76
2023/12/15 00:31:57;;;;;;;40.12;28.45;;;;;;;;;;5587759;31;35356;-76
2023/12/15 00:35:00;;;;;;;39.78;29.63;;;;;;;;;;5587685;31;34841;-76
2023/12/15 00:38:02;;;;;;;38.13;28.83;;;;;;;;;;5587548;31;35204;-76
2023/12/15 00:41:05;;;;;;;39.55;28.95;;;;;;;;;;5587913;31;34753;-76
2023/12/15 00:44:07;;;;;;;39.47;29.12;;;;;;;;;;5587492;31;34462;-76
2023/12/15 00:47:10;;;;;;;38.88;29.30;;;;;;;;;;5586720;31;34820;-77
2023/12/15 00:50:13;;;;;;;44.20;30.08;;;;;;;;;;5587405;31;35371;-76
2023/12/15 00:53:15;;;;;;;38.95;29.05;;;;;;;;;;5587581;31;34597;-75
2023/12/15 00:56:18;;;;;;;45.20;30.83;;;;;;;;;;5587378;31;35457;-75
2023/12/15 00:59:20;;;;;;;41.92;30.98;;;;;;;;;;5587635;31;35397;-76
2023/12/15 01:02:23;;;;;;;40.33;29.83;;;;;;;;;;5587531;31;34606;-75
2023/12/15 01:05:27;;;;;;;42.62;30.42;;;;;;;;;;5587485;31;34692;-75
2023/12/15 01:08:30;;;;;;;40.47;29.55;;;;;;;;;;5587176;31;34637;-77
2023/12/15 01:11:33;;;;;;;41.30;30.10;;;;;;;;;;5587048;31;34798;-77
2023/12/15 01:14:35;;;;;;;43.33;30.35;;;;;;;;;;5587153;31;35360;-77
2023/12/15 01:17:38;;;;;;;43.35;31.35;;;;;;;;;;5586630;31;34719;-77
2023/12/15 01:20:41;;;;;;;41.45;30.98;;;;;;;;;;5587167;31;35479;-77
2023/12/15 01:23:44;;;;;;;43.03;31.15;;;;;;;;;;5589165;31;34649;-76
2023/12/15 01:26:46;;;;;;;42.22;30.23;;;;;;;;;;5589644;31;34845;-75
2023/12/15 01:29:49;;;;;;;40.25;29.55;;;;;;;;;;5589570;31;35333;-76
2023/12/15 01:32:52;;;;;;;40.28;28.73;;;;;;;;;;5589534;31;35350;-77
2023/12/15 01:35:55;;;;;;;39.30;29.45;;;;;;;;;;5589565;31;35335;-77
2023/12/15 01:38:57;;;;;;;41.85;28.67;;;;;;;;;;5589629;31;34681;-77
2023/12/15 01:42:00;;;;;;;39.88;28.75;;;;;;;;;;5589558;31;34690;-76
2023/12/15 01:45:02;;;;;;;37.88;27.98;;;;;;;;;;5589353;31;34889;-76
2023/12/15 01:48:06;;;;;;;39.90;29.45;;;;;;;;;;5589362;31;35391;-76
2023/12/15 01:51:09;;;;;;;41.15;30.35;;;;;;;;;;5589400;31;35317;-77
2023/12/15 01:54:12;;;;;;;39.95;29.75;;;;;;;;;;5589370;31;35360;-77
2023/12/15 01:57:15;;;;;;;40.97;30.02;;;;;;;;;;5589580;31;35305;-77
2023/12/15 02:00:17;;;;;;;41.40;30.30;;;;;;;;;;5589277;31;34897;-77
2023/12/15 02:03:20;;;;;;;44.40;30.65;;;;;;;;;;5589306;31;34819;-76
2023/12/15 02:06:23;;;;;;;43.95;31.50;;;;;;;;;;5589311;31;34627;-78
2023/12/15 02:09:26;;;;;;;43.25;31.10;;;;;;;;;;5589589;31;34647;-77
2023/12/15 02:12:29;;;;;;;41.80;30.30;;;;;;;;;;5589552;31;35299;-77
2023/12/15 02:15:31;;;;;;;42.40;30.50;;;;;;;;;;5588387;31;35200;-76
2023/12/15 02:18:34;;;;;;;42.40;29.95;;;;;;;;;;5589077;31;34722;-77
2023/12/15 02:21:36;;;;;;;41.60;29.33;;;;;;;;;;5589132;31;34585;-76
2023/12/15 02:24:39;;;;;;;41.88;29.70;;;;;;;;;;5588235;31;35296;-76
2023/12/15 02:27:42;;;;;;;42.80;29.35;;;;;;;;;;5589043;31;34701;-77
2023/12/15 02:30:44;;;;;;;41.47;30.30;;;;;;;;;;5589153;31;32947;-77
2023/12/15 02:33:47;;;;;;;39.92;29.17;;;;;;;;;;5588706;31;34854;-77
2023/12/15 02:36:51;;;;;;;38.72;27.87;;;;;;;;;;5589105;31;34596;-77
2023/12/15 02:39:53;;;;;;;36.42;27.95;;;;;;;;;;5588977;31;35421;-77
2023/12/15 02:42:56;;;;;;;38.45;27.58;;;;;;;;;;5588943;31;34704;-78
2023/12/15 02:45:58;;;;;;;35.10;26.30;;;;;;;;;;5588921;31;34698;-77
2023/12/15 02:49:00;;;;;;;37.25;26.33;;;;;;;;;;5588966;31;35354;-77
2023/12/15 02:52:03;;;;;;;32.80;24.50;;;;;;;;;;5588104;31;35366;-76
2023/12/15 02:55:06;;;;;;;34.17;25.10;;;;;;;;;;5588843;31;35049;-77
2023/12/15 02:58:08;;;;;;;31.90;23.40;;;;;;;;;;5589201;31;34555;-76
2023/12/15 03:01:11;;;;;;;30.92;22.98;;;;;;;;;;5588425;31;34689;-77
2023/12/15 03:04:14;;;;;;;30.75;22.50;;;;;;;;;;5588866;31;35392;-76
2023/12/15 03:07:17;;;;;;;28.80;21.50;;;;;;;;;;5587929;31;35359;-78
2023/12/15 03:10:19;;;;;;;29.23;20.95;;;;;;;;;;5589072;31;34819;-77
2023/12/15 03:13:22;;;;;;;29.65;20.25;;;;;;;;;;5588607;31;34984;-76
2023/12/15 03:16:24;;;;;;;29.00;19.42;;;;;;;;;;5588607;31;34580;-77
2023/12/15 03:19:27;;;;;;;26.08;18.83;;;;;;;;;;5588635;31;34799;-77
2023/12/15 03:22:29;;;;;;;26.87;19.85;;;;;;;;;;5588528;31;34743;-77
2023/12/15 03:25:32;;;;;;;24.00;18.70;;;;;;;;;;5588503;31;35356;-77
2023/12/15 03:28:34;;;;;;;26.27;19.33;;;;;;;;;;5588575;31;34558;-76
2023/12/15 03:31:37;;;;;;;25.30;19.10;;;;;;;;;;5588881;31;34652;-76
2023/12/15 03:34:39;;;;;;;28.50;19.52;;;;;;;;;;5588496;31;34657;-75
2023/12/15 03:37:42;;;;;;;25.20;19.23;;;;;;;;;;5588593;31;34779;-75
2023/12/15 03:40:44;;;;;;;26.83;19.92;;;;;;;;;;5588383;31;35348;-76
2023/12/15 03:43:47;;;;;;;25.20;19.20;;;;;;;;;;5588071;31;34710;-77
2023/12/15 03:46:50;;;;;;;27.27;19.92;;;;;;;;;;5587804;31;34940;-77
2023/12/15 03:49:52;;;;;;;26.40;18.90;;;;;;;;;;5588670;31;35351;-75
2023/12/15 03:52:55;;;;;;;23.85;18.83;;;;;;;;;;5588633;31;35396;-76
2023/12/15 03:55:58;;;;;;;26.12;19.37;;;;;;;;;;5588172;31;35372;-76
2023/12/15 03:59:01;;;;;;;26.48;19.95;;;;;;;;;;5587500;31;34787;-75
2023/12/15 04:02:03;;;;;;;28.92;20.42;;;;;;;;;;5588248;31;34541;-76
2023/12/15 04:05:09;;;;;;;27.05;20.67;;;;;;;;;;5588445;31;35261;-76
2023/12/15 04:08:12;;;;;;;30.17;22.40;;;;;;;;;;5588253;31;35371;-77
2023/12/15 04:11:17;;;;;;;28.33;21.77;;;;;;;;;;5588111;31;35329;-76
2023/12/15 04:14:20;;;;;;;32.50;23.08;;;;;;;;;;5588066;31;34925;-75
2023/12/15 04:17:22;;;;;;;31.75;22.48;;;;;;;;;;5583676;31;143403;-76
2023/12/15 04:20:25;;;;;;;27.67;20.92;;;;;;;;;;5587985;31;35326;-76
2023/12/15 04:23:28;;;;;;;25.77;19.40;;;;;;;;;;5587852;31;34524;-75
2023/12/15 04:26:30;;;;;;;27.42;20.33;;;;;;;;;;5587773;31;34561;-76
2023/12/15 04:29:33;;;;;;;25.40;19.85;;;;;;;;;;5587947;31;34592;-76
2023/12/15 04:32:36;;;;;;;25.37;19.10;;;;;;;;;;5587715;31;34551;-75
2023/12/15 04:35:38;;;;;;;25.23;18.80;;;;;;;;;;5587244;31;35230;-76
2023/12/15 04:38:41;;;;;;;26.67;19.08;;;;;;;;;;5587521;31;34754;-77
2023/12/15 04:41:43;;;;;;;24.90;19.10;;;;;;;;;;5587609;31;34659;-76
2023/12/15 04:44:46;;;;;;;25.77;19.83;;;;;;;;;;5587975;31;35201;-77
2023/12/15 04:47:48;;;;;;;24.08;18.85;;;;;;;;;;5587458;31;35328;-76
2023/12/15 04:50:52;;;;;;;23.83;18.08;;;;;;;;;;5587441;31;35544;-76
2023/12/15 04:53:55;;;;;;;26.20;19.75;;;;;;;;;;5587482;31;34705;-76
2023/12/15 04:56:57;;;;;;;27.05;19.87;;;;;;;;;;5588718;31;35315;-75
2023/12/15 05:00:00;;;;;;;28.35;21.08;;;;;;;;;;5589503;31;34518;-74
2023/12/15 05:03:02;;;;;;;26.67;19.50;;;;;;;;;;5589753;31;34878;-73
2023/12/15 05:06:06;;;;;;;28.87;19.37;;;;;;;;;;5589748;31;34451;-75
2023/12/15 05:09:09;;;;;;;24.17;18.73;;;;;;;;;;5589811;31;34616;-75
2023/12/15 05:12:11;;;;;;;23.10;18.15;;;;;;;;;;5589678;31;35302;-73
2023/12/15 05:15:15;;;;;;;24.23;17.77;;;;;;;;;;5589979;31;34835;-74
2023/12/15 05:18:17;;;;;;;23.52;17.60;;;;;;;;;;5589598;31;34714;-74
2023/12/15 05:21:20;;;;;;;23.65;17.23;;;;;;;;;;5589712;31;34630;-75
2023/12/15 05:24:23;;;;;;;21.83;16.37;;;;;;;;;;5589741;31;34524;-74
2023/12/15 05:27:26;;;;;;;19.87;15.32;;;;;;;;;;5588838;31;34593;-74
2023/12/15 05:30:29;;;;;;;18.90;14.35;;;;;;;;;;5589837;31;34659;-74
2023/12/15 05:33:31;;;;;;;17.98;14.23;;;;;;;;;;5589645;31;34606;-75
2023/12/15 05:36:34;;;;;;;18.85;14.77;;;;;;;;;;5589607;31;35485;-75
2023/12/15 05:39:36;;;;;;;18.52;13.90;;;;;;;;;;5589447;31;35300;-75
2023/12/15 05:42:40;;;;;;;17.05;13.40;;;;;;;;;;5589386;31;35284;-75
2023/12/15 05:45:42;;;;;;;17.02;13.20;;;;;;;;;;5589698;31;34469;-73
2023/12/15 05:48:45;;;;;;;17.42;13.30;;;;;;;;;;5589339;31;34560;-74
2023/12/15 05:51:48;;;;;;;19.12;13.73;;;;;;;;;;5589424;31;34493;-74
2023/12/15 05:54:50;;;;;;;17.98;13.50;;;;;;;;;;5589382;31;34791;-72
2023/12/15 05:57:53;;;;;;;18.42;13.98;;;;;;;;;;5589126;31;34533;-74
2023/12/15 06:00:56;;;;;;;20.48;14.52;;;;;;;;;;5589356;31;34499;-75
2023/12/15 06:03:59;;;;;;;18.12;13.85;;;;;;;;;;5589389;31;34750;-75
2023/12/15 06:07:01;;;;;;;16.10;13.05;;;;;;;;;;5588908;31;34507;-73
2023/12/15 06:10:04;;;;;;;16.77;13.13;;;;;;;;;;5588835;31;34520;-74
2023/12/15 06:13:07;;;;;;;17.83;13.35;;;;;;;;;;5589245;31;35339;-75
2023/12/15 06:16:16;;;;;;;17.80;13.50;;;;;;;;;;5588262;31;35289;-75
2023/12/15 06:19:19;;;;;;;15.77;12.50;;;;;;;;;;5588427;31;35379;-75
2023/12/15 06:22:22;;;;;;;16.33;12.25;;;;;;;;;;5588847;31;34736;-75
2023/12/15 06:25:24;;;;;;;16.30;12.18;;;;;;;;;;5588763;31;35290;-74
2023/12/15 06:28:27;;;;;;;15.02;11.88;;;;;;;;;;5588781;31;35373;-75
2023/12/15 06:31:30;;;;;;;18.00;11.98;;;;;;;;;;5588975;31;34790;-74
2023/12/15 06:34:33;;;;;;;13.85;10.50;;;;;;;;;;5589145;31;34556;-73
2023/12/15 06:37:35;;;;;;;17.58;11.35;;;;;;;;;;5588666;31;34499;-75
2023/12/15 06:40:40;;;;;;;14.15;10.98;;;;;;;;;;5587875;31;35287;-74
2023/12/15 06:43:43;;;;;;;16.17;11.23;;;;;;;;;;5587948;31;35329;-74
2023/12/15 06:46:46;;;;;;;15.35;10.30;;;;;;;;;;5588825;31;34682;-74
2023/12/15 06:49:49;;;;;;;15.43;10.43;;;;;;;;;;5588258;31;34633;-73
2023/12/15 06:52:51;;;;;;;14.32;10.65;;;;;;;;;;5588598;31;35339;-74
2023/12/15 06:55:54;;;;;;;14.23;10.05;;;;;;;;;;5588500;31;34671;-74
2023/12/15 06:58:56;;;;;;;14.07;9.85;;;;;;;;;;5588358;31;34595;-74
2023/12/15 07:01:59;;;;;;;16.00;10.30;;;;;;;;;;5588332;31;34726;-73
2023/12/15 07:05:01;;;;;;;14.10;9.95;;;;;;;;;;5588345;31;34709;-73
2023/12/15 07:08:04;;;;;;;12.63;9.82;;;;;;;;;;5588567;31;34585;-74
2023/12/15 07:11:07;;;;;;;16.20;11.88;;;;;;;;;;5588196;31;34451;-74
2023/12/15 07:14:09;;;;;;;14.13;10.40;;;;;;;;;;5588314;31;34450;-75
2023/12/15 07:17:12;;;;;;;14.48;10.15;;;;;;;;;;5587902;31;35448;-73
2023/12/15 07:20:15;;;;;;;13.07;8.77;;;;;;;;;;5587081;31;35008;-74
2023/12/15 07:23:18;;;;;;;13.15;8.60;;;;;;;;;;5588399;31;34749;-75
2023/12/15 07:26:21;;;;;;;11.90;8.45;;;;;;;;;;5587952;31;34861;-74
2023/12/15 07:29:24;;;;;;;11.12;7.93;;;;;;;;;;5588436;31;35366;-75
2023/12/15 07:32:27;;;;;;;10.77;7.55;;;;;;;;;;5587610;31;34804;-74
2023/12/15 07:35:30;;;;;;;11.20;7.60;;;;;;;;;;5588382;31;34729;-75
2023/12/15 07:38:34;;;;;;;11.32;7.90;;;;;;;;;;5588180;31;34849;-75
2023/12/15 07:41:39;;;;;;;9.25;7.03;;;;;;;;;;5587880;31;34824;-74
2023/12/15 07:44:41;;;;;;;9.48;7.50;;;;;;;;;;5588407;31;34536;-74
2023/12/15 07:47:44;;;;;;;10.90;6.95;;;;;;;;;;5587543;31;34626;-73
2023/12/15 07:50:48;;;;;;;11.02;7.25;;;;;;;;;;5588405;31;34802;-75
2023/12/15 07:53:51;;;;;;;11.02;7.07;;;;;;;;;;5588178;31;35389;-75
2023/12/15 07:56:53;;;;;;;8.57;6.78;;;;;;;;;;5587799;31;35353;-75
2023/12/15 07:59:55;;;;;;;9.75;7.40;;;;;;;;;;5588164;31;34722;-75
2023/12/15 08:02:58;;;;;;;10.40;7.28;;;;;;;;;;5587800;31;35355;-75
2023/12/15 08:06:00;;;;;;;10.40;7.30;;;;;;;;;;5587920;31;35069;-75
2023/12/15 08:09:04;;;;;;;13.32;7.70;;;;;;;;;;5587983;31;35337;-75
2023/12/15 08:12:07;;;;;;;10.45;6.68;;;;;;;;;;5588230;31;35293;-75
2023/12/15 08:15:09;;;;;;;10.55;6.60;;;;;;;;;;5587773;31;34805;-74
2023/12/15 08:18:12;;;;;;;8.60;6.62;;;;;;;;;;5587433;31;34400;-75
2023/12/15 08:21:15;;;;;;;8.95;7.00;;;;;;;;;;5587194;31;34609;-75
2023/12/15 08:24:17;;;;;;;11.52;7.10;;;;;;;;;;5587821;31;34676;-75
2023/12/15 08:27:24;;;;;;;9.98;6.80;;;;;;;;;;5587668;31;34673;-75
2023/12/15 08:30:27;;;;;;;10.05;7.15;;;;;;;;;;5588202;31;35280;-75
2023/12/15 08:33:29;;;;;;;10.43;7.10;;;;;;;;;;5589860;31;35288;-75
2023/12/15 08:36:32;;;;;;;13.45;7.87;;;;;;;;;;5590108;31;34701;-75
2023/12/15 08:39:34;;;;;;;13.93;7.55;;;;;;;;;;5589658;31;34595;-73
2023/12/15 08:42:37;;;;;;;11.43;7.65;;;;;;;;;;5589811;31;34780;-74
2023/12/15 08:45:39;;;;;;;11.55;8.15;;;;;;;;;;5589729;31;34677;-73
2023/12/15 08:48:42;;;;;;;11.23;7.03;;;;;;;;;;5589708;31;34780;-73
2023/12/15 08:51:44;;;;;;;10.00;7.45;;;;;;;;;;5590334;31;34892;-73
2023/12/15 08:54:47;;;;;;;10.68;7.22;;;;;;;;;;5589897;31;34901;-73
2023/12/15 08:57:51;;;;;;;10.63;7.50;;;;;;;;;;5589992;31;34655;-73
2023/12/15 09:00:56;;;;;;;8.32;6.78;;;;;;;;;;5589699;31;35312;-73
2023/12/15 09:03:58;;;;;;;11.20;7.57;;;;;;;;;;5589715;31;34702;-72
2023/12/15 09:07:01;;;;;;;12.07;7.05;;;;;;;;;;5589448;31;35353;-72
2023/12/15 09:10:04;;;;;;;11.73;7.80;;;;;;;;;;5589644;31;35364;-73
2023/12/15 09:13:07;;;;;;;10.50;7.40;;;;;;;;;;5589932;31;34589;-73
2023/12/15 09:16:10;;;;;;;11.00;7.30;;;;;;;;;;5589376;31;35269;-73
2023/12/15 09:19:13;;;;;;;10.27;7.35;;;;;;;;;;5589268;31;35227;-74
2023/12/15 09:22:16;;;;;;;11.55;7.45;;;;;;;;;;5589539;31;34801;-75
2023/12/15 09:25:19;;;;;;;11.02;7.20;;;;;;;;;;5589526;31;35438;-75
2023/12/15 09:28:21;;;;;;;12.18;7.60;;;;;;;;;;5589484;31;34497;-74
2023/12/15 09:31:24;;;;;;;11.82;7.72;;;;;;;;;;5589518;31;34706;-74
2023/12/15 09:34:27;;;;;;;11.35;7.18;;;;;;;;;;5589539;31;34851;-73
2023/12/15 09:37:30;;;;;;;10.73;7.60;;;;;;;;;;5589372;31;35380;-74
2023/12/15 09:40:34;;;;;;;10.13;7.60;;;;;;;;;;5589334;31;34891;-74
2023/12/15 09:43:37;;;;;;;13.07;8.38;;;;;;;;;;5588574;31;34460;-73
2023/12/15 09:46:39;;;;;;;10.20;7.90;;;;;;;;;;5589219;31;34593;-74
2023/12/15 09:49:43;;;;;;;14.85;8.30;;;;;;;;;;5589163;31;34661;-74
2023/12/15 09:52:46;;;;;;;13.73;9.00;;;;;;;;;;5589426;31;35394;-74
2023/12/15 09:55:50;;;;;;;20.37;8.90;;;;;;;;;;5589301;31;35368;-74
2023/12/15 09:58:53;;;;;;;14.07;9.02;;;;;;;;;;5589110;31;35278;-73
2023/12/15 10:01:56;;;;;;;11.65;8.70;;;;;;;;;;5589321;31;34771;-73
2023/12/15 10:04:59;;;;;;;14.75;8.85;;;;;;;;;;5589106;31;34806;-74
2023/12/15 10:08:02;;;;;;;12.30;8.77;;;;;;;;;;5589419;31;34860;-73
2023/12/15 10:11:04;;;;;;;14.48;8.80;;;;;;;;;;5589238;31;34862;-74
2023/12/15 10:14:07;;;;;;;13.07;8.55;;;;;;;;;;5589279;31;35352;-73
2023/12/15 10:17:11;;;;;;;11.98;8.95;;;;;;;;;;5589079;31;35330;-73
2023/12/15 10:20:14;;;;;;;10.63;8.05;;;;;;;;;;5589004;31;34507;-74
2023/12/15 10:23:24;;;;;;;13.07;8.13;;;;;;;;;;5588903;31;35101;-73
2023/12/15 10:26:30;;;;;;;14.43;7.43;;;;;;;;;;5589045;31;35334;-73
2023/12/15 10:29:37;;;;;;;11.90;7.53;;;;;;;;;;5588755;31;35409;-74
2023/12/15 10:32:40;;;;;;;9.80;7.22;;;;;;;;;;5589146;31;34647;-73
2023/12/15 10:35:45;;;;;;;12.82;7.95;;;;;;;;;;5588955;31;35205;-74
2023/12/15 10:38:48;;;;;;;10.48;8.35;;;;;;;;;;5589090;31;34670;-74
2023/12/15 10:41:52;;;;;;;12.57;7.80;;;;;;;;;;5589080;31;35334;-75
2023/12/15 10:44:56;;;;;;;11.00;7.78;;;;;;;;;;5588329;31;35585;-74
2023/12/15 10:48:00;;;;;;;9.32;7.60;;;;;;;;;;5589024;31;34757;-73
2023/12/15 10:51:04;;;;;;;10.57;7.90;;;;;;;;;;5590144;31;34722;-74
2023/12/15 10:54:09;;;;;;;10.90;7.82;;;;;;;;;;5590251;31;34732;-73
2023/12/15 10:57:11;;;;;;;13.15;7.97;;;;;;;;;;5591241;31;34137;-73
2023/12/15 11:00:17;;;;;;;12.20;7.97;;;;;;;;;;5588673;31;34429;-75
2023/12/15 11:03:23;;;;;;;11.93;8.25;;;;;;;;;;5588834;31;34607;-73
2023/12/15 11:06:32;;;;;;;11.23;8.13;;;;;;;;;;5588942;31;35250;-74
2023/12/15 11:09:36;;;;;;;11.55;8.10;;;;;;;;;;5588686;31;34503;-74
2023/12/15 11:12:42;;;;;;;13.38;8.60;;;;;;;;;;5588932;31;34355;-73
2023/12/15 11:15:45;;;;;;;12.50;8.43;;;;;;;;;;5588465;31;34372;-73
2023/12/15 11:18:49;;;;;;;11.60;8.25;;;;;;;;;;5588432;31;35524;-74
2023/12/15 11:21:52;;;;;;;12.07;8.15;;;;;;;;;;5588661;31;34612;-74
2023/12/15 11:24:56;;;;;;;12.18;8.57;;;;;;;;;;5588304;31;34696;-74
2023/12/15 11:28:07;;;;;;;13.02;8.48;;;;;;;;;;5588655;31;34692;-74
2023/12/15 11:31:20;;;;;;;14.65;9.15;;;;;;;;;;5588113;31;34740;-74
2023/12/15 11:34:39;;;;;;;13.70;8.75;;;;;;;;;;5588227;31;34652;-74
2023/12/15 11:37:42;;;;;;;17.85;9.60;;;;;;;;;;5588354;31;35235;-73
2023/12/15 11:40:44;;;;;;;13.43;9.48;;;;;;;;;;5588226;31;34601;-74
2023/12/15 11:43:48;;;;;;;13.30;9.52;;;;;;;;;;5587839;31;34524;-74
2023/12/15 11:46:52;;;;;;;16.42;9.52;;;;;;;;;;5587717;31;35340;-74
2023/12/15 11:49:55;;;;;;;14.98;9.50;;;;;;;;;;5587440;31;34622;-73
2023/12/15 11:52:57;;;;;;;13.75;10.00;;;;;;;;;;5588142;31;35349;-75
2023/12/15 11:56:04;;;;;;;15.23;9.80;;;;;;;;;;5588013;31;35407;-73
2023/12/15 11:59:08;;;;;;;17.00;10.27;;;;;;;;;;5588065;31;35378;-73
2023/12/15 12:02:15;;;;;;;13.98;9.27;;;;;;;;;;5588306;31;34457;-73
2023/12/15 12:05:18;;;;;;;12.23;8.52;;;;;;;;;;5587472;31;35498;-74
2023/12/15 12:08:22;;;;;;;15.07;8.75;;;;;;;;;;5588110;31;35033;-74
2023/12/15 12:11:24;;;;;;;13.32;9.25;;;;;;;;;;5588190;31;34799;-74
2023/12/15 12:14:27;;;;;;;17.35;9.25;;;;;;;;;;5587604;31;34455;-74
2023/12/15 12:17:30;;;;;;;13.45;8.68;;;;;;;;;;5587456;31;35376;-74
2023/12/15 12:20:33;;;;;;;13.73;8.40;;;;;;;;;;5587652;31;34597;-75
2023/12/15 12:23:36;;;;;;;12.55;8.77;;;;;;;;;;5587702;31;34882;-75
2023/12/15 12:26:49;;;;;;;12.77;8.65;;;;;;;;;;5587800;31;35402;-75
2023/12/15 12:29:52;;;;;;;15.50;8.50;;;;;;;;;;5586833;31;34790;-75
2023/12/15 12:32:54;;;;;;;12.73;9.02;;;;;;;;;;5587180;31;34692;-73
2023/12/15 12:35:58;;;;;;;11.55;8.27;;;;;;;;;;5587525;31;35269;-73
2023/12/15 12:39:00;;;;;;;12.55;8.60;;;;;;;;;;5587572;31;34667;-74
2023/12/15 12:42:03;;;;;;;11.73;8.52;;;;;;;;;;5586697;31;34713;-73
2023/12/15 12:45:07;;;;;;;13.77;8.63;;;;;;;;;;5586883;31;34631;-73
2023/12/15 12:48:10;;;;;;;14.57;9.32;;;;;;;;;;5587438;31;34577;-73
2023/12/15 12:51:12;;;;;;;18.27;9.25;;;;;;;;;;5587392;31;34707;-74
2023/12/15 12:54:15;;;;;;;13.62;9.45;;;;;;;;;;5587115;31;34599;-74
2023/12/15 12:57:18;;;;;;;15.13;9.07;;;;;;;;;;5587184;31;34443;-74
2023/12/15 13:00:20;;;;;;;12.13;8.57;;;;;;;;;;5587235;31;34376;-73
2023/12/15 13:03:23;;;;;;;15.27;9.90;;;;;;;;;;5587033;31;34672;-73
2023/12/15 13:06:27;;;;;;;16.05;10.27;;;;;;;;;;5586937;31;34786;-74
2023/12/15 13:09:29;;;;;;;17.17;10.15;;;;;;;;;;5586818;31;35391;-74
2023/12/15 13:12:32;;;;;;;17.62;10.30;;;;;;;;;;5586907;31;35430;-74
2023/12/15 13:15:35;;;;;;;17.17;10.52;;;;;;;;;;5586760;31;34611;-74
2023/12/15 13:18:37;;;;;;;21.83;10.18;;;;;;;;;;5589603;31;34664;-74
2023/12/15 13:21:40;;;;;;;20.70;9.80;;;;;;;;;;5589676;31;34506;-73
2023/12/15 13:24:43;;;;;;;18.20;10.23;;;;;;;;;;5589516;31;34866;-73
2023/12/15 13:27:59;;;;;;;15.77;9.70;;;;;;;;;;5589443;31;35329;-73
2023/12/15 13:31:03;;;;;;;20.50;9.63;;;;;;;;;;5589380;31;35338;-73
2023/12/15 13:34:06;;;;;;;13.05;9.27;;;;;;;;;;5589684;31;34657;-74
2023/12/15 13:37:09;;;;;;;14.05;9.43;;;;;;;;;;5589813;31;34602;-73
2023/12/15 13:40:12;;;;;;;14.73;9.68;;;;;;;;;;5589458;31;34655;-72
2023/12/15 13:43:15;;;;;;;17.95;9.57;;;;;;;;;;5588510;31;35396;-72
2023/12/15 13:46:19;;;;;;;14.63;9.35;;;;;;;;;;5575625;31;34689;-74
2023/12/15 13:49:24;;;;;;;14.98;9.60;;;;;;;;;;5588577;31;35417;-74
2023/12/15 13:52:27;;;;;;;12.90;9.45;;;;;;;;;;5589544;31;35331;-72
2023/12/15 13:55:29;;;;;;;16.20;9.85;;;;;;;;;;5589130;31;34505;-72
2023/12/15 13:58:33;;;;;;;13.45;9.43;;;;;;;;;;5588466;31;34689;-73
2023/12/15 14:01:37;;;;;;;15.75;9.70;;;;;;;;;;5589536;31;34424;-72
2023/12/15 14:04:40;;;;;;;14.75;9.48;;;;;;;;;;5589191;31;35320;-73
2023/12/15 14:07:42;;;;;;;15.38;9.65;;;;;;;;;;5588256;31;34715;-72
2023/12/15 14:10:47;;;;;;;15.02;8.90;;;;;;;;;;5588917;31;35362;-73
2023/12/15 14:13:50;;;;;;;12.18;8.93;;;;;;;;;;5589173;31;35394;-72
2023/12/15 14:16:53;;;;;;;12.65;8.65;;;;;;;;;;5588866;31;35369;-71
2023/12/15 14:19:55;;;;;;;13.48;8.00;;;;;;;;;;5589239;31;34665;-74
2023/12/15 14:22:59;;;;;;;11.57;8.38;;;;;;;;;;5589286;31;34627;-74
2023/12/15 14:26:03;;;;;;;13.05;8.30;;;;;;;;;;5588597;31;35308;-73
2023/12/15 14:29:08;;;;;;;14.90;8.13;;;;;;;;;;5588401;31;35289;-73
2023/12/15 14:32:10;;;;;;;13.20;7.78;;;;;;;;;;5589324;31;34518;-73
2023/12/15 14:35:13;;;;;;;13.50;7.82;;;;;;;;;;5587845;31;34641;-70
2023/12/15 14:38:17;;;;;;;14.60;8.00;;;;;;;;;;5588751;31;35336;-73
2023/12/15 14:41:20;;;;;;;14.85;8.13;;;;;;;;;;5588542;31;34409;-73
2023/12/15 14:44:22;;;;;;;13.25;8.07;;;;;;;;;;5588654;31;34648;-72
2023/12/15 14:47:25;;;;;;;14.02;8.15;;;;;;;;;;5588489;31;35436;-73
2023/12/15 14:50:32;;;;;;;11.82;7.32;;;;;;;;;;5588440;31;35215;-73
2023/12/15 14:53:35;;;;;;;14.65;9.23;;;;;;;;;;5588429;31;35249;-73
2023/12/15 14:56:38;;;;;;;10.77;7.20;;;;;;;;;;5588585;31;35349;-73
2023/12/15 14:59:41;;;;;;;12.00;7.30;;;;;;;;;;5588152;31;35438;-73
2023/12/15 15:02:45;;;;;;;11.18;7.22;;;;;;;;;;5588204;31;34799;-74
2023/12/15 15:05:48;;;;;;;11.05;7.15;;;;;;;;;;5588466;31;35407;-73
2023/12/15 15:08:50;;;;;;;11.88;6.90;;;;;;;;;;5588226;31;35268;-74
2023/12/15 15:11:53;;;;;;;11.50;6.57;;;;;;;;;;5588389;31;34558;-73
2023/12/15 15:14:56;;;;;;;11.20;6.43;;;;;;;;;;5588360;31;35296;-73
2023/12/15 15:17:59;;;;;;;11.80;6.75;;;;;;;;;;5587358;31;34831;-72
2023/12/15 15:21:03;;;;;;;10.68;6.32;;;;;;;;;;5588245;31;34529;-75
2023/12/15 15:24:06;;;;;;;10.10;6.28;;;;;;;;;;5588417;31;35246;-73
2023/12/15 15:27:09;;;;;;;10.73;6.30;;;;;;;;;;5588353;31;35312;-73
2023/12/15 15:30:12;;;;;;;8.23;5.10;;;;;;;;;;5588031;31;35323;-73
2023/12/15 15:33:14;;;;;;;8.30;4.82;;;;;;;;;;5588807;31;34777;-72
2023/12/15 15:36:18;;;;;;;8.30;4.40;;;;;;;;;;5587519;31;35416;-72
2023/12/15 15:39:21;;;;;;;7.80;4.60;;;;;;;;;;5587483;31;34587;-74
2023/12/15 15:42:24;;;;;;;6.28;4.28;;;;;;;;;;5587001;31;35296;-73
2023/12/15 15:45:27;;;;;;;7.62;4.72;;;;;;;;;;5588102;31;35301;-74
2023/12/15 15:48:32;;;;;;;11.02;5.80;;;;;;;;;;5587764;31;34773;-73
2023/12/15 15:51:35;;;;;;;8.57;5.37;;;;;;;;;;5588019;31;34468;-72
2023/12/15 15:54:45;;;;;;;9.00;6.12;;;;;;;;;;5587985;31;34740;-72
2023/12/15 15:57:47;;;;;;;11.12;6.70;;;;;;;;;;5588097;31;34732;-73
2023/12/15 16:00:50;;;;;;;10.23;6.75;;;;;;;;;;5587605;31;34706;-73
2023/12/15 16:03:53;;;;;;;9.80;6.60;;;;;;;;;;5588065;31;34589;-74
2023/12/15 16:06:56;;;;;;;9.55;6.45;;;;;;;;;;5588007;31;34685;-73
2023/12/15 16:09:59;;;;;;;9.82;6.40;;;;;;;;;;5587517;31;35339;-72
2023/12/15 16:13:01;;;;;;;8.40;6.05;;;;;;;;;;5587635;31;35307;-72
2023/12/15 16:16:05;;;;;;;9.95;6.50;;;;;;;;;;5586806;31;34589;-74
2023/12/15 16:19:09;;;;;;;9.20;6.03;;;;;;;;;;5587576;31;34739;-73
2023/12/15 16:22:12;;;;;;;9.30;6.22;;;;;;;;;;5587457;31;34650;-74
2023/12/15 16:25:16;;;;;;;10.05;6.57;;;;;;;;;;5587620;31;34647;-72
2023/12/15 16:28:19;;;;;;;9.88;6.50;;;;;;;;;;5587107;31;34796;-72
2023/12/15 16:31:22;;;;;;;9.95;6.80;;;;;;;;;;5586663;31;33059;-72
2023/12/15 16:34:26;;;;;;;10.50;7.00;;;;;;;;;;5587610;31;35311;-72
2023/12/15 16:37:29;;;;;;;10.80;7.22;;;;;;;;;;5587978;31;34656;-72
2023/12/15 16:40:32;;;;;;;13.27;8.23;;;;;;;;;;5587488;31;35250;-72
2023/12/15 16:43:34;;;;;;;13.45;7.90;;;;;;;;;;5587140;31;34589;-72
2023/12/15 16:46:37;;;;;;;10.38;7.75;;;;;;;;;;5587373;31;34729;-73
2023/12/15 16:49:42;;;;;;;11.30;7.15;;;;;;;;;;5587694;31;34609;-73
2023/12/15 16:52:45;;;;;;;15.63;8.02;;;;;;;;;;5588714;31;34898;-73
2023/12/15 16:55:47;;;;;;;12.07;7.62;;;;;;;;;;5589875;31;34847;-73
2023/12/15 16:58:50;;;;;;;12.27;7.57;;;;;;;;;;5589710;31;35320;-73
2023/12/15 17:01:54;;;;;;;12.77;7.28;;;;;;;;;;5588804;31;34889;-74
2023/12/15 17:05:00;;;;;;;13.73;7.95;;;;;;;;;;5589809;31;35220;-73
2023/12/15 17:08:03;;;;;;;22.85;7.57;;;;;;;;;;5589820;31;34776;-73
2023/12/15 17:11:06;;;;;;;11.88;6.82;;;;;;;;;;5589646;31;34639;-73
2023/12/15 17:14:08;;;;;;;10.75;7.10;;;;;;;;;;5589446;31;35264;-73
2023/12/15 17:17:12;;;;;;;10.27;6.53;;;;;;;;;;5589111;31;35348;-73
2023/12/15 17:20:14;;;;;;;12.00;6.53;;;;;;;;;;5589398;31;35260;-72
2023/12/15 17:23:20;;;;;;;9.85;6.78;;;;;;;;;;5589139;31;34602;-72
2023/12/15 17:26:23;;;;;;;9.07;6.22;;;;;;;;;;5588617;31;33912;-73
2023/12/15 17:29:27;;;;;;;10.20;6.35;;;;;;;;;;5589387;31;34561;-74
2023/12/15 17:32:45;;;;;;;9.90;6.43;;;;;;;;;;5589658;31;34637;-72
2023/12/15 17:35:47;;;;;;;10.82;6.55;;;;;;;;;;5589715;31;34654;-73
2023/12/15 17:38:50;;;;;;;10.07;6.45;;;;;;;;;;5589093;31;34823;-73
2023/12/15 17:41:52;;;;;;;10.35;6.40;;;;;;;;;;5589273;31;35396;-73
2023/12/15 17:44:56;;;;;;;8.88;5.82;;;;;;;;;;5589291;31;35328;-73
2023/12/15 17:48:01;;;;;;;10.38;6.68;;;;;;;;;;5589723;31;34975;-73
2023/12/15 17:51:04;;;;;;;9.68;6.10;;;;;;;;;;5589381;31;35296;-73
2023/12/15 17:54:07;;;;;;;9.75;5.60;;;;;;;;;;5589297;31;35364;-73
2023/12/15 17:57:10;;;;;;;9.38;4.93;;;;;;;;;;5589198;31;35326;-72